createdAt,value
2019-04-19T00:00:12.801Z,929.92
2019-04-19T00:01:11.317Z,929.91
2019-04-19T00:02:12.195Z,929.96
2019-04-19T00:03:12.277Z,929.98
2019-04-19T00:04:12.094Z,929.97
2019-04-19T00:05:09.387Z,930.01
2019-04-19T00:06:15.988Z,930.05
2019-04-19T00:07:14.414Z,930.05
2019-04-19T00:08:20.146Z,930.06
2019-04-19T00:09:23.898Z,930.08
2019-04-19T00:10:21.582Z,930.08
2019-04-19T00:11:18.898Z,930.09
2019-04-19T00:12:21.898Z,930.15
2019-04-19T00:13:08.270Z,930.14
2019-04-19T00:14:08.535Z,930.17
2019-04-19T00:15:07.598Z,930.16
2019-04-19T00:16:08.751Z,930.18
2019-04-19T00:17:16.882Z,930.17
2019-04-19T00:18:10.983Z,930.18
2019-04-19T00:19:42.653Z,930.18
2019-04-19T00:20:31.426Z,930.16
2019-04-19T00:21:24.095Z,930.21
2019-04-19T00:22:41.264Z,930.25
2019-04-19T00:23:15.412Z,930.28
2019-04-19T00:24:07.973Z,930.29
2019-04-19T00:25:08.151Z,930.33
2019-04-19T00:26:07.092Z,930.33
2019-04-19T00:27:07.752Z,930.37
2019-04-19T00:28:07.089Z,930.35
2019-04-19T00:29:16.713Z,930.40
2019-04-19T00:30:19.265Z,930.40
2019-04-19T00:31:22.604Z,930.38
2019-04-19T00:32:20.795Z,930.39
2019-04-19T00:33:20.553Z,930.41
2019-04-19T00:34:06.699Z,930.43
2019-04-19T00:35:07.477Z,930.44
2019-04-19T00:36:07.675Z,930.46
2019-04-19T00:37:07.738Z,930.45
2019-04-19T00:38:11.155Z,930.46
2019-04-19T00:39:24.543Z,930.46
2019-04-19T00:40:21.557Z,930.49
2019-04-19T00:41:26.902Z,930.47
2019-04-19T00:42:25.449Z,930.48
2019-04-19T00:43:25.232Z,930.45
2019-04-19T00:44:28.345Z,930.47
2019-04-19T00:45:23.755Z,930.48
2019-04-19T00:46:24.842Z,930.44
2019-04-19T00:47:25.939Z,930.50
2019-04-19T00:48:24.301Z,930.45
2019-04-19T00:49:16.069Z,930.48
2019-04-19T00:50:18.281Z,930.50
2019-04-19T00:51:18.721Z,930.49
2019-04-19T00:52:28.872Z,930.49
2019-04-19T00:53:21.698Z,930.53
2019-04-19T00:54:15.971Z,930.52
2019-04-19T00:55:14.702Z,930.55
2019-04-19T00:56:13.505Z,930.52
2019-04-19T00:57:14.691Z,930.51
2019-04-19T00:58:12.503Z,930.50
2019-04-19T00:59:09.705Z,930.54
2019-04-19T01:00:06.488Z,930.52
2019-04-19T01:01:12.154Z,930.55
2019-04-19T01:02:10.576Z,930.49
2019-04-19T01:03:06.264Z,930.53
2019-04-19T01:04:13.497Z,930.48
2019-04-19T01:05:11.388Z,930.48
2019-04-19T01:06:08.933Z,930.52
2019-04-19T01:07:06.934Z,930.47
2019-04-19T01:08:10.268Z,930.46
2019-04-19T01:09:19.165Z,930.44
2019-04-19T01:10:19.596Z,930.41
2019-04-19T01:11:20.117Z,930.42
2019-04-19T01:12:19.566Z,930.41
2019-04-19T01:13:15.602Z,930.44
2019-04-19T01:14:18.397Z,930.45
2019-04-19T01:15:16.521Z,930.43
2019-04-19T01:16:18.088Z,930.46
2019-04-19T01:17:17.549Z,930.40
2019-04-19T01:18:22.427Z,930.40
2019-04-19T01:19:09.091Z,930.39
2019-04-19T01:20:07.455Z,930.39
2019-04-19T01:21:05.055Z,930.37
2019-04-19T01:22:11.864Z,930.38
2019-04-19T01:23:10.114Z,930.33
2019-04-19T01:24:05.266Z,930.26
2019-04-19T01:25:10.445Z,930.30
2019-04-19T01:26:08.660Z,930.29
2019-04-19T01:27:04.433Z,930.29
2019-04-19T01:28:11.375Z,930.31
2019-04-19T01:29:09.018Z,930.36
2019-04-19T01:30:04.606Z,930.38
2019-04-19T01:31:10.064Z,930.35
2019-04-19T01:32:08.713Z,930.36
2019-04-19T01:33:05.455Z,930.36
2019-04-19T01:34:14.691Z,930.38
2019-04-19T01:35:07.139Z,930.35
2019-04-19T01:36:04.262Z,930.34
2019-04-19T01:37:11.335Z,930.35
2019-04-19T01:38:08.095Z,930.36
2019-04-19T01:39:17.991Z,930.35
2019-04-19T01:40:18.137Z,930.38
2019-04-19T01:41:20.490Z,930.34
2019-04-19T01:42:20.892Z,930.32
2019-04-19T01:43:23.717Z,930.29
2019-04-19T01:44:25.207Z,930.28
2019-04-19T01:45:17.302Z,930.30
2019-04-19T01:46:15.885Z,930.27
2019-04-19T01:47:23.927Z,930.27
2019-04-19T01:48:27.024Z,930.28
2019-04-19T01:49:12.845Z,930.28
2019-04-19T01:50:12.347Z,930.29
2019-04-19T01:51:15.849Z,930.31
2019-04-19T01:52:33.461Z,930.30
2019-04-19T01:53:20.722Z,930.35
2019-04-19T01:54:18.839Z,930.31
2019-04-19T01:55:12.249Z,930.30
2019-04-19T01:56:06.331Z,930.31
2019-04-19T01:57:06.321Z,930.30
2019-04-19T01:58:09.460Z,930.28
2019-04-19T01:59:03.678Z,930.28
2019-04-19T02:00:05.082Z,930.26
2019-04-19T02:01:06.972Z,930.26
2019-04-19T02:02:07.321Z,930.27
2019-04-19T02:03:04.563Z,930.24
2019-04-19T02:04:06.351Z,930.20
2019-04-19T02:05:06.903Z,930.22
2019-04-19T02:06:06.807Z,930.18
2019-04-19T02:07:06.005Z,930.24
2019-04-19T02:08:07.134Z,930.25
2019-04-19T02:09:03.456Z,930.30
2019-04-19T02:10:14.700Z,930.28
2019-04-19T02:11:10.019Z,930.29
2019-04-19T02:12:24.811Z,930.33
2019-04-19T02:13:13.947Z,930.32
2019-04-19T02:14:10.174Z,930.30
2019-04-19T02:15:07.835Z,930.32
2019-04-19T02:16:08.244Z,930.35
2019-04-19T02:17:06.365Z,930.30
2019-04-19T02:18:03.058Z,930.35
2019-04-19T02:19:06.518Z,930.31
2019-04-19T02:20:05.879Z,930.31
2019-04-19T02:21:02.311Z,930.29
2019-04-19T02:22:07.439Z,930.31
2019-04-19T02:23:07.403Z,930.30
2019-04-19T02:24:03.578Z,930.29
2019-04-19T02:25:02.588Z,930.30
2019-04-19T02:26:08.944Z,930.33
2019-04-19T02:27:06.485Z,930.28
2019-04-19T02:28:02.570Z,930.32
2019-04-19T02:29:07.483Z,930.32
2019-04-19T02:30:09.552Z,930.33
2019-04-19T02:31:23.730Z,930.31
2019-04-19T02:33:29.380Z,930.33
2019-04-19T02:34:44.213Z,930.32
2019-04-19T02:35:24.197Z,930.32
2019-04-19T02:36:35.732Z,930.29
2019-04-19T02:37:39.890Z,930.31
2019-04-19T02:38:29.658Z,930.31
2019-04-19T02:39:29.400Z,930.29
2019-04-19T02:40:47.227Z,930.30
2019-04-19T02:41:43.586Z,930.31
2019-04-19T02:42:32.718Z,930.28
2019-04-19T02:43:43.261Z,930.30
2019-04-19T02:44:31.242Z,930.33
2019-04-19T02:45:22.519Z,930.33
2019-04-19T02:46:33.240Z,930.31
2019-04-19T02:47:38.929Z,930.28
2019-04-19T02:48:26.344Z,930.28
2019-04-19T02:49:37.814Z,930.24
2019-04-19T02:52:33.259Z,930.23
2019-04-19T02:53:29.607Z,930.22
2019-04-19T02:54:25.549Z,930.22
2019-04-19T02:55:23.147Z,930.21
2019-04-19T02:56:42.656Z,930.19
2019-04-19T02:58:30.289Z,930.21
2019-04-19T02:59:38.668Z,930.22
2019-04-19T03:00:30.872Z,930.22
2019-04-19T03:01:26.773Z,930.21
2019-04-19T03:02:32.112Z,930.17
2019-04-19T03:03:30.942Z,930.16
2019-04-19T03:06:14.834Z,930.07
2019-04-19T03:07:03.121Z,930.05
2019-04-19T03:07:59.777Z,930.02
2019-04-19T03:08:59.482Z,930.07
2019-04-19T03:10:00.021Z,930.04
2019-04-19T03:11:10.736Z,930.07
2019-04-19T03:12:16.681Z,930.06
2019-04-19T03:13:13.836Z,930.06
2019-04-19T03:14:14.234Z,930.07
2019-04-19T03:15:15.238Z,930.09
2019-04-19T03:16:17.087Z,930.08
2019-04-19T03:17:20.533Z,930.05
2019-04-19T03:18:26.013Z,930.09
2019-04-19T03:19:09.471Z,930.05
2019-04-19T03:20:18.049Z,930.06
2019-04-19T03:21:17.026Z,930.05
2019-04-19T03:22:16.404Z,930.04
2019-04-19T03:23:14.904Z,930.00
2019-04-19T03:24:14.307Z,930.02
2019-04-19T03:25:15.212Z,930.04
2019-04-19T03:26:15.329Z,930.05
2019-04-19T03:27:06.673Z,930.05
2019-04-19T03:28:11.028Z,930.07
2019-04-19T03:29:08.248Z,930.03
2019-04-19T03:30:14.516Z,930.04
2019-04-19T03:31:23.621Z,930.05
2019-04-19T03:34:18.602Z,930.05
2019-04-19T03:35:19.239Z,929.95
2019-04-19T03:36:16.635Z,929.96
2019-04-19T03:37:16.211Z,929.94
2019-04-19T03:38:17.495Z,929.97
2019-04-19T03:39:18.168Z,929.93
2019-04-19T03:40:23.362Z,929.97
2019-04-19T03:41:18.530Z,929.94
2019-04-19T03:42:21.226Z,929.96
2019-04-19T03:43:23.250Z,929.94
2019-04-19T03:44:18.454Z,929.90
2019-04-19T03:45:14.076Z,929.91
2019-04-19T03:46:15.969Z,929.88
2019-04-19T03:47:15.056Z,929.89
2019-04-19T03:48:25.514Z,929.89
2019-04-19T03:49:24.669Z,929.87
2019-04-19T03:50:15.473Z,929.87
2019-04-19T03:51:13.590Z,929.84
2019-04-19T03:53:15.400Z,929.87
2019-04-19T03:54:21.770Z,929.80
2019-04-19T03:55:14.373Z,929.78
2019-04-19T03:56:16.456Z,929.79
2019-04-19T03:57:11.348Z,929.77
2019-04-19T03:58:03.268Z,929.78
2019-04-19T03:58:57.689Z,929.75
2019-04-19T03:59:58.267Z,929.72
2019-04-19T04:00:58.074Z,929.72
2019-04-19T04:02:00.631Z,929.72
2019-04-19T04:03:01.064Z,929.75
2019-04-19T04:04:06.502Z,929.78
2019-04-19T04:05:02.632Z,929.74
2019-04-19T04:05:58.238Z,929.77
2019-04-19T04:07:01.089Z,929.72
2019-04-19T04:08:06.093Z,929.74
2019-04-19T04:09:02.678Z,929.71
2019-04-19T04:09:59.280Z,929.67
2019-04-19T04:11:00.216Z,929.68
2019-04-19T04:12:14.653Z,929.66
2019-04-19T04:13:13.303Z,929.66
2019-04-19T04:14:13.820Z,929.64
2019-04-19T04:15:08.231Z,929.64
2019-04-19T04:16:07.649Z,929.65
2019-04-19T04:16:56.990Z,929.64
2019-04-19T04:17:56.423Z,929.62
2019-04-19T04:18:57.502Z,929.63
2019-04-19T04:19:56.748Z,929.64
2019-04-19T04:20:59.036Z,929.63
2019-04-19T04:21:57.420Z,929.67
2019-04-19T04:23:03.663Z,929.66
2019-04-19T04:24:06.224Z,929.64
2019-04-19T04:25:04.194Z,929.65
2019-04-19T04:26:02.817Z,929.67
2019-04-19T04:27:06.049Z,929.67
2019-04-19T04:28:03.813Z,929.65
2019-04-19T04:29:06.819Z,929.65
2019-04-19T04:30:08.153Z,929.65
2019-04-19T04:31:05.847Z,929.61
2019-04-19T04:32:05.272Z,929.63
2019-04-19T04:33:05.423Z,929.61
2019-04-19T04:34:06.083Z,929.61
2019-04-19T04:35:13.574Z,929.58
2019-04-19T04:36:18.236Z,929.59
2019-04-19T04:37:12.598Z,929.57
2019-04-19T04:38:05.844Z,929.58
2019-04-19T04:38:56.491Z,929.58
2019-04-19T04:39:55.591Z,929.57
2019-04-19T04:40:55.173Z,929.53
2019-04-19T04:42:08.990Z,929.48
2019-04-19T04:43:09.434Z,929.47
2019-04-19T04:44:13.416Z,929.40
2019-04-19T04:45:18.500Z,929.42
2019-04-19T04:46:21.641Z,929.40
2019-04-19T04:47:16.576Z,929.40
2019-04-19T04:48:07.751Z,929.37
2019-04-19T04:49:25.637Z,929.36
2019-04-19T04:50:16.895Z,929.33
2019-04-19T04:51:15.715Z,929.35
2019-04-19T04:52:04.543Z,929.29
2019-04-19T04:52:55.940Z,929.28
2019-04-19T04:53:55.314Z,929.31
2019-04-19T04:54:54.560Z,929.27
2019-04-19T04:55:58.165Z,929.29
2019-04-19T04:57:05.252Z,929.28
2019-04-19T04:57:59.040Z,929.29
2019-04-19T04:58:58.316Z,929.27
2019-04-19T04:59:57.455Z,929.31
2019-04-19T05:01:01.763Z,929.29
2019-04-19T05:02:01.438Z,929.27
2019-04-19T05:03:10.500Z,929.29
2019-04-19T05:04:10.492Z,929.25
2019-04-19T05:05:10.067Z,929.29
2019-04-19T05:06:11.224Z,929.27
2019-04-19T05:07:11.335Z,929.26
2019-04-19T05:08:16.596Z,929.25
2019-04-19T05:09:10.754Z,929.28
2019-04-19T05:10:09.333Z,929.23
2019-04-19T05:11:13.944Z,929.27
2019-04-19T05:12:36.524Z,929.23
2019-04-19T05:14:11.289Z,929.25
2019-04-19T05:15:14.886Z,929.28
2019-04-19T05:16:25.201Z,929.26
2019-04-19T05:17:26.289Z,929.22
2019-04-19T05:18:18.913Z,929.22
2019-04-19T05:19:10.817Z,929.29
2019-04-19T05:20:14.529Z,929.26
2019-04-19T05:21:16.105Z,929.23
2019-04-19T05:22:11.706Z,929.25
2019-04-19T05:23:08.228Z,929.24
2019-04-19T05:24:18.957Z,929.25
2019-04-19T05:25:19.352Z,929.25
2019-04-19T05:26:25.527Z,929.29
2019-04-19T05:27:14.831Z,929.31
2019-04-19T05:28:13.265Z,929.32
2019-04-19T05:29:07.310Z,929.33
2019-04-19T05:29:56.210Z,929.30
2019-04-19T05:30:58.690Z,929.28
2019-04-19T05:32:03.737Z,929.32
2019-04-19T05:33:04.765Z,929.30
2019-04-19T05:34:14.968Z,929.33
2019-04-19T05:35:08.409Z,929.35
2019-04-19T05:36:13.784Z,929.36
2019-04-19T05:37:10.847Z,929.40
2019-04-19T05:38:08.470Z,929.39
2019-04-19T05:39:21.889Z,929.40
2019-04-19T05:40:12.186Z,929.34
2019-04-19T05:41:02.803Z,929.34
2019-04-19T05:42:05.832Z,929.39
2019-04-19T05:43:10.166Z,929.37
2019-04-19T05:44:19.817Z,929.35
2019-04-19T05:45:31.532Z,929.35
2019-04-19T05:46:17.791Z,929.34
2019-04-19T05:47:10.274Z,929.33
2019-04-19T05:48:00.594Z,929.37
2019-04-19T05:49:07.972Z,929.33
2019-04-19T05:50:16.988Z,929.29
2019-04-19T05:52:14.120Z,929.27
2019-04-19T05:53:08.067Z,929.29
2019-04-19T05:53:55.116Z,929.31
2019-04-19T05:54:51.711Z,929.40
2019-04-19T05:55:52.176Z,929.38
2019-04-19T05:56:56.059Z,929.34
2019-04-19T05:58:05.613Z,929.36
2019-04-19T05:58:59.948Z,929.35
2019-04-19T05:59:59.516Z,929.33
2019-04-19T06:01:08.052Z,929.35
2019-04-19T06:02:05.512Z,929.35
2019-04-19T06:03:04.279Z,929.38
2019-04-19T06:04:11.876Z,929.34
2019-04-19T06:05:14.971Z,929.31
2019-04-19T06:06:15.570Z,929.28
2019-04-19T06:07:08.338Z,929.32
2019-04-19T06:08:04.160Z,929.33
2019-04-19T06:08:51.923Z,929.35
2019-04-19T06:09:51.898Z,929.36
2019-04-19T06:10:54.891Z,929.31
2019-04-19T06:11:51.417Z,929.25
2019-04-19T06:13:00.443Z,929.23
2019-04-19T06:14:12.651Z,929.24
2019-04-19T06:15:13.474Z,929.23
2019-04-19T06:16:12.878Z,929.22
2019-04-19T06:17:01.521Z,929.25
2019-04-19T06:18:06.725Z,929.18
2019-04-19T06:19:12.767Z,929.14
2019-04-19T06:20:11.383Z,929.15
2019-04-19T06:21:17.159Z,929.16
2019-04-19T06:22:04.653Z,929.16
2019-04-19T06:23:07.153Z,929.18
2019-04-19T06:24:13.600Z,929.15
2019-04-19T06:25:06.457Z,929.10
2019-04-19T06:26:45.439Z,929.12
2019-04-19T06:28:18.654Z,929.12
2019-04-19T06:29:11.973Z,929.14
2019-04-19T06:30:16.136Z,929.15
2019-04-19T06:31:14.386Z,929.15
2019-04-19T06:32:11.533Z,929.13
2019-04-19T06:33:12.010Z,929.15
2019-04-19T06:34:10.998Z,929.11
2019-04-19T06:35:05.701Z,929.08
2019-04-19T06:35:55.431Z,929.06
2019-04-19T06:37:02.876Z,929.03
2019-04-19T06:37:50.297Z,929.03
2019-04-19T06:38:50.722Z,928.98
2019-04-19T06:39:53.616Z,929.00
2019-04-19T06:40:57.893Z,928.99
2019-04-19T06:41:55.869Z,928.97
2019-04-19T06:42:58.162Z,928.98
2019-04-19T06:44:01.679Z,928.97
2019-04-19T06:45:09.440Z,928.95
2019-04-19T06:46:08.298Z,928.93
2019-04-19T06:47:00.843Z,928.93
2019-04-19T06:47:56.986Z,928.91
2019-04-19T06:48:57.700Z,928.94
2019-04-19T06:49:52.475Z,928.98
2019-04-19T06:50:53.949Z,928.95
2019-04-19T06:51:57.485Z,928.91
2019-04-19T06:52:49.048Z,928.86
2019-04-19T06:53:55.551Z,928.82
2019-04-19T06:54:49.756Z,928.85
2019-04-19T06:55:53.016Z,928.86
2019-04-19T06:57:00.794Z,928.81
2019-04-19T06:58:00.150Z,928.85
2019-04-19T06:58:59.745Z,928.84
2019-04-19T07:00:02.962Z,928.89
2019-04-19T07:01:00.715Z,928.87
2019-04-19T07:01:52.743Z,928.92
2019-04-19T07:02:49.669Z,928.95
2019-04-19T07:03:49.396Z,928.90
2019-04-19T07:05:03.505Z,928.86
2019-04-19T07:06:06.320Z,928.91
2019-04-19T07:07:09.356Z,928.87
2019-04-19T07:08:17.710Z,928.86
2019-04-19T07:09:13.695Z,928.86
2019-04-19T07:10:20.276Z,928.82
2019-04-19T07:11:11.269Z,928.81
2019-04-19T07:12:06.930Z,928.85
2019-04-19T07:13:04.482Z,928.80
2019-04-19T07:13:56.536Z,928.82
2019-04-19T07:15:12.417Z,928.77
2019-04-19T07:16:15.874Z,928.82
2019-04-19T07:17:09.567Z,928.82
2019-04-19T07:18:05.230Z,928.80
2019-04-19T07:19:07.900Z,928.76
2019-04-19T07:20:06.073Z,928.71
2019-04-19T07:21:06.178Z,928.67
2019-04-19T07:22:05.092Z,928.65
2019-04-19T07:23:03.315Z,928.68
2019-04-19T07:24:09.975Z,928.71
2019-04-19T07:25:15.303Z,928.71
2019-04-19T07:26:13.854Z,928.71
2019-04-19T07:27:08.174Z,928.70
2019-04-19T07:27:55.622Z,928.67
2019-04-19T07:28:47.475Z,928.68
2019-04-19T07:29:49.031Z,928.61
2019-04-19T07:30:49.193Z,928.64
2019-04-19T07:31:47.097Z,928.65
2019-04-19T07:32:56.618Z,928.66
2019-04-19T07:33:57.202Z,928.66
2019-04-19T07:35:03.346Z,928.71
2019-04-19T07:36:07.961Z,928.70
2019-04-19T07:37:03.799Z,928.67
2019-04-19T07:38:12.490Z,928.71
2019-04-19T07:39:21.582Z,928.71
2019-04-19T07:40:11.451Z,928.71
2019-04-19T07:41:05.908Z,928.72
2019-04-19T07:42:15.642Z,928.69
2019-04-19T07:43:00.331Z,928.67
2019-04-19T07:43:59.231Z,928.68
2019-04-19T07:44:52.955Z,928.72
2019-04-19T07:46:08.457Z,928.74
2019-04-19T07:47:02.861Z,928.71
2019-04-19T07:47:53.970Z,928.74
2019-04-19T07:48:47.112Z,928.71
2019-04-19T07:49:57.495Z,928.73
2019-04-19T07:50:55.764Z,928.74
2019-04-19T07:51:56.524Z,928.77
2019-04-19T07:52:53.762Z,928.77
2019-04-19T07:53:49.270Z,928.82
2019-04-19T07:54:53.521Z,928.84
2019-04-19T07:56:00.752Z,928.85
2019-04-19T07:57:00.500Z,928.83
2019-04-19T07:58:27.784Z,928.83
2019-04-19T08:00:15.066Z,928.88
2019-04-19T08:01:37.125Z,928.89
2019-04-19T08:02:26.641Z,928.91
2019-04-19T08:03:27.941Z,928.92
2019-04-19T08:06:13.613Z,928.91
2019-04-19T08:08:18.464Z,928.96
2019-04-19T08:09:13.780Z,929.00
2019-04-19T08:10:10.800Z,929.04
2019-04-19T08:11:21.905Z,929.03
2019-04-19T08:12:13.277Z,929.03
2019-04-19T08:14:09.788Z,929.02
2019-04-19T08:15:11.859Z,929.00
2019-04-19T08:16:16.794Z,929.04
2019-04-19T08:18:13.195Z,929.08
2019-04-19T08:27:52.515Z,929.20
2019-04-19T08:28:56.004Z,929.23
2019-04-19T08:29:51.309Z,929.25
2019-04-19T08:30:48.788Z,929.26
2019-04-19T08:31:44.383Z,929.26
2019-04-19T08:32:45.040Z,929.28
2019-04-19T08:33:44.688Z,929.30
2019-04-19T08:34:51.960Z,929.32
2019-04-19T08:35:49.144Z,929.34
2019-04-19T08:36:51.690Z,929.36
2019-04-19T08:37:46.176Z,929.38
2019-04-19T08:39:03.186Z,929.35
2019-04-19T08:39:58.700Z,929.34
2019-04-19T08:40:59.315Z,929.39
2019-04-19T08:42:07.462Z,929.37
2019-04-19T08:43:01.296Z,929.41
2019-04-19T08:44:03.740Z,929.44
2019-04-19T08:44:54.629Z,929.49
2019-04-19T08:45:44.557Z,929.45
2019-04-19T08:46:43.558Z,929.49
2019-04-19T08:47:51.566Z,929.50
2019-04-19T08:48:50.334Z,929.56
2019-04-19T08:49:45.238Z,929.58
2019-04-19T08:50:48.633Z,929.61
2019-04-19T08:51:43.965Z,929.59
2019-04-19T08:52:51.220Z,929.64
2019-04-19T08:53:57.230Z,929.66
2019-04-19T08:55:07.645Z,929.64
2019-04-19T08:56:01.292Z,929.75
2019-04-19T08:56:53.663Z,929.71
2019-04-19T08:57:51.181Z,929.72
2019-04-19T08:58:54.347Z,929.77
2019-04-19T09:00:08.154Z,929.79
2019-04-19T09:01:09.823Z,929.78
2019-04-19T09:02:00.964Z,929.78
2019-04-19T09:02:54.178Z,929.77
2019-04-19T09:04:06.628Z,929.77
2019-04-19T09:05:00.399Z,929.80
2019-04-19T09:06:32.736Z,929.81
2019-04-19T09:07:59.762Z,929.86
2019-04-19T09:08:57.897Z,929.95
2019-04-19T09:10:19.483Z,929.91
2019-04-19T09:11:01.446Z,929.95
2019-04-19T09:12:03.925Z,929.97
2019-04-19T09:13:12.500Z,929.97
2019-04-19T09:14:06.983Z,930.00
2019-04-19T09:15:01.750Z,930.00
2019-04-19T09:16:00.593Z,930.03
2019-04-19T09:17:08.634Z,930.02
2019-04-19T09:19:28.337Z,930.03
2019-04-19T09:21:02.963Z,930.04
2019-04-19T09:21:58.163Z,930.05
2019-04-19T09:22:55.067Z,930.10
2019-04-19T09:23:48.508Z,930.10
2019-04-19T09:24:52.665Z,930.09
2019-04-19T09:25:55.140Z,930.10
2019-04-19T09:26:58.978Z,930.10
2019-04-19T09:28:00.347Z,930.12
2019-04-19T09:29:58.942Z,930.16
2019-04-19T09:30:58.293Z,930.17
2019-04-19T09:31:51.889Z,930.18
2019-04-19T09:32:42.290Z,930.18
2019-04-19T09:33:44.060Z,930.20
2019-04-19T09:34:51.952Z,930.20
2019-04-19T09:35:50.814Z,930.25
2019-04-19T09:36:49.143Z,930.26
2019-04-19T09:37:53.831Z,930.29
2019-04-19T09:38:55.484Z,930.29
2019-04-19T09:39:50.139Z,930.31
2019-04-19T09:40:48.658Z,930.30
2019-04-19T09:41:46.609Z,930.28
2019-04-19T09:42:50.774Z,930.34
2019-04-19T09:43:52.551Z,930.28
2019-04-19T09:44:47.980Z,930.34
2019-04-19T09:45:40.752Z,930.32
2019-04-19T09:46:40.715Z,930.31
2019-04-19T09:47:41.924Z,930.35
2019-04-19T09:48:56.608Z,930.37
2019-04-19T09:49:57.229Z,930.37
2019-04-19T09:50:55.108Z,930.41
2019-04-19T09:51:55.361Z,930.46
2019-04-19T09:52:59.916Z,930.43
2019-04-19T09:54:02.607Z,930.45
2019-04-19T09:55:03.641Z,930.40
2019-04-19T09:56:02.250Z,930.41
2019-04-19T09:56:53.654Z,930.44
2019-04-19T09:58:04.659Z,930.42
2019-04-19T09:58:53.931Z,930.45
2019-04-19T09:59:43.043Z,930.50
2019-04-19T10:00:40.944Z,930.49
2019-04-19T10:01:45.700Z,930.51
2019-04-19T10:02:48.292Z,930.53
2019-04-19T10:03:46.952Z,930.57
2019-04-19T10:04:40.037Z,930.58
2019-04-19T10:05:41.071Z,930.58
2019-04-19T10:06:40.665Z,930.66
2019-04-19T10:07:40.814Z,930.61
2019-04-19T10:08:40.121Z,930.64
2019-04-19T10:09:40.727Z,930.67
2019-04-19T10:10:40.762Z,930.67
2019-04-19T10:11:39.500Z,930.69
2019-04-19T10:12:39.830Z,930.60
2019-04-19T10:13:39.878Z,930.63
2019-04-19T10:14:39.667Z,930.72
2019-04-19T10:15:40.442Z,930.67
2019-04-19T10:16:40.091Z,930.69
2019-04-19T10:17:40.545Z,930.67
2019-04-19T10:18:49.163Z,930.71
2019-04-19T10:19:39.156Z,930.75
2019-04-19T10:20:39.110Z,930.77
2019-04-19T10:21:40.437Z,930.74
2019-04-19T10:22:39.114Z,930.76
2019-04-19T10:23:38.958Z,930.77
2019-04-19T10:24:39.122Z,930.75
2019-04-19T10:25:45.875Z,930.78
2019-04-19T10:26:38.797Z,930.78
2019-04-19T10:27:39.663Z,930.82
2019-04-19T10:28:39.981Z,930.82
2019-04-19T10:29:41.804Z,930.85
2019-04-19T10:30:38.649Z,930.89
2019-04-19T10:31:39.727Z,930.81
2019-04-19T10:32:38.689Z,930.85
2019-04-19T10:33:46.596Z,930.79
2019-04-19T10:34:38.633Z,930.82
2019-04-19T10:35:38.383Z,930.80
2019-04-19T10:36:38.586Z,930.82
2019-04-19T10:37:39.801Z,930.82
2019-04-19T10:38:38.246Z,930.86
2019-04-19T10:39:39.454Z,930.86
2019-04-19T10:40:38.168Z,930.83
2019-04-19T10:41:38.456Z,930.77
2019-04-19T10:42:38.967Z,930.81
2019-04-19T10:43:39.067Z,930.87
2019-04-19T10:44:38.228Z,930.83
2019-04-19T10:45:38.300Z,930.86
2019-04-19T10:46:38.601Z,930.87
2019-04-19T10:47:37.970Z,930.89
2019-04-19T10:48:38.894Z,930.87
2019-04-19T10:49:44.298Z,930.89
2019-04-19T10:50:43.656Z,930.88
2019-04-19T10:51:37.705Z,930.85
2019-04-19T10:52:37.662Z,930.88
2019-04-19T10:53:38.684Z,930.83
2019-04-19T10:54:38.275Z,930.83
2019-04-19T10:55:38.236Z,930.82
2019-04-19T10:56:38.493Z,930.78
2019-04-19T10:57:37.446Z,930.84
2019-04-19T10:58:38.632Z,930.82
2019-04-19T10:59:38.459Z,930.87
2019-04-19T11:00:37.587Z,930.84
2019-04-19T11:01:37.271Z,930.85
2019-04-19T11:02:38.413Z,930.87
2019-04-19T11:03:37.211Z,930.86
2019-04-19T11:04:38.549Z,930.89
2019-04-19T11:05:37.131Z,930.90
2019-04-19T11:06:37.592Z,930.93
2019-04-19T11:07:39.823Z,930.97
2019-04-19T11:08:38.303Z,930.98
2019-04-19T11:09:37.547Z,930.99
2019-04-19T11:10:37.891Z,931.01
2019-04-19T11:11:37.248Z,931.03
2019-04-19T11:12:36.832Z,931.01
2019-04-19T11:13:38.024Z,931.05
2019-04-19T11:14:36.777Z,931.04
2019-04-19T11:15:36.747Z,931.06
2019-04-19T11:16:37.548Z,931.06
2019-04-19T11:17:37.961Z,931.11
2019-04-19T11:18:37.349Z,931.18
2019-04-19T11:19:49.835Z,931.14
2019-04-19T11:20:45.002Z,931.18
2019-04-19T11:21:36.485Z,931.19
2019-04-19T11:22:37.672Z,931.23
2019-04-19T11:23:37.614Z,931.22
2019-04-19T11:24:36.360Z,931.20
2019-04-19T11:25:36.314Z,931.22
2019-04-19T11:26:36.963Z,931.26
2019-04-19T11:27:37.334Z,931.28
2019-04-19T11:28:36.688Z,931.25
2019-04-19T11:29:36.557Z,931.27
2019-04-19T11:30:37.233Z,931.29
2019-04-19T11:31:36.161Z,931.29
2019-04-19T11:32:36.011Z,931.30
2019-04-19T11:33:37.070Z,931.28
2019-04-19T11:34:35.946Z,931.30
2019-04-19T11:35:37.142Z,931.36
2019-04-19T11:36:35.860Z,931.36
2019-04-19T11:37:37.015Z,931.32
2019-04-19T11:38:36.742Z,931.35
2019-04-19T11:39:36.886Z,931.35
2019-04-19T11:40:35.678Z,931.33
2019-04-19T11:41:36.842Z,931.31
2019-04-19T11:42:35.613Z,931.33
2019-04-19T11:43:35.740Z,931.34
2019-04-19T11:44:35.949Z,931.33
2019-04-19T11:45:35.810Z,931.33
2019-04-19T11:46:36.046Z,931.31
2019-04-19T11:47:35.405Z,931.31
2019-04-19T11:48:35.367Z,931.32
2019-04-19T11:49:38.710Z,931.38
2019-04-19T11:50:35.888Z,931.36
2019-04-19T11:51:36.111Z,931.32
2019-04-19T11:52:35.640Z,931.34
2019-04-19T11:53:36.416Z,931.34
2019-04-19T11:54:35.066Z,931.36
2019-04-19T11:55:36.216Z,931.33
2019-04-19T11:56:45.299Z,931.34
2019-04-19T11:57:34.922Z,931.34
2019-04-19T11:58:35.842Z,931.35
2019-04-19T11:59:43.361Z,931.36
2019-04-19T12:00:35.916Z,931.40
2019-04-19T12:01:34.779Z,931.38
2019-04-19T12:02:35.832Z,931.38
2019-04-19T12:03:37.497Z,931.42
2019-04-19T12:04:34.645Z,931.42
2019-04-19T12:05:35.841Z,931.42
2019-04-19T12:06:34.543Z,931.41
2019-04-19T12:07:34.793Z,931.46
2019-04-19T12:08:34.447Z,931.47
2019-04-19T12:09:34.525Z,931.49
2019-04-19T12:10:35.950Z,931.49
2019-04-19T12:11:34.336Z,931.50
2019-04-19T12:12:35.079Z,931.49
2019-04-19T12:13:36.443Z,931.52
2019-04-19T12:14:34.463Z,931.49
2019-04-19T12:15:34.331Z,931.49
2019-04-19T12:16:35.044Z,931.47
2019-04-19T12:17:35.385Z,931.50
2019-04-19T12:18:36.892Z,931.53
2019-04-19T12:19:39.773Z,931.53
2019-04-19T12:20:35.035Z,931.50
2019-04-19T12:21:33.882Z,931.49
2019-04-19T12:22:33.813Z,931.48
2019-04-19T12:23:34.776Z,931.51
2019-04-19T12:24:34.857Z,931.51
2019-04-19T12:25:33.703Z,931.55
2019-04-19T12:26:33.656Z,931.56
2019-04-19T12:27:33.905Z,931.51
2019-04-19T12:28:33.579Z,931.61
2019-04-19T12:29:38.726Z,931.60
2019-04-19T12:30:33.673Z,931.64
2019-04-19T12:31:33.705Z,931.64
2019-04-19T12:32:33.369Z,931.63
2019-04-19T12:33:33.434Z,931.64
2019-04-19T12:34:33.292Z,931.64
2019-04-19T12:35:33.249Z,931.62
2019-04-19T12:36:33.212Z,931.64
2019-04-19T12:37:33.237Z,931.61
2019-04-19T12:38:33.320Z,931.56
2019-04-19T12:39:33.092Z,931.59
2019-04-19T12:40:33.864Z,931.62
2019-04-19T12:41:34.101Z,931.64
2019-04-19T12:42:33.905Z,931.66
2019-04-19T12:43:33.996Z,931.63
2019-04-19T12:44:33.261Z,931.65
2019-04-19T12:45:33.559Z,931.65
2019-04-19T12:46:32.899Z,931.67
2019-04-19T12:47:33.167Z,931.66
2019-04-19T12:48:32.680Z,931.68
2019-04-19T12:49:33.170Z,931.72
2019-04-19T12:50:35.570Z,931.67
2019-04-19T12:51:32.547Z,931.69
2019-04-19T12:52:33.576Z,931.69
2019-04-19T12:53:32.825Z,931.63
2019-04-19T12:54:32.393Z,931.64
2019-04-19T12:55:32.433Z,931.67
2019-04-19T12:56:32.325Z,931.70
2019-04-19T12:57:32.292Z,931.70
2019-04-19T12:58:32.353Z,931.69